createdAt,value
2018-02-09T00:00:36.750Z,27.53
2018-02-09T00:03:04.315Z,24.80
2018-02-09T00:05:31.878Z,25.50
2018-02-09T00:07:59.495Z,26.70
2018-02-09T00:10:27.126Z,23.30
2018-02-09T00:12:54.745Z,25.53
2018-02-09T00:15:22.310Z,24.27
2018-02-09T00:17:49.893Z,25.00
2018-02-09T00:20:17.523Z,22.10
2018-02-09T00:22:52.933Z,24.20
2018-02-09T00:25:20.507Z,23.27
2018-02-09T00:27:48.067Z,24.67
2018-02-09T00:30:15.747Z,22.90
2018-02-09T00:32:43.315Z,22.83
2018-02-09T00:35:10.875Z,21.80
2018-02-09T00:37:38.519Z,22.87
2018-02-09T00:40:06.098Z,21.97
2018-02-09T00:42:33.744Z,22.87
2018-02-09T00:45:01.470Z,23.17
2018-02-09T00:47:29.099Z,23.63
2018-02-09T00:49:56.646Z,24.10
2018-02-09T00:52:24.218Z,25.30
2018-02-09T00:54:51.774Z,24.30
2018-02-09T00:57:19.342Z,21.83
2018-02-09T00:59:46.909Z,20.67
2018-02-09T01:02:14.577Z,19.50
2018-02-09T01:04:42.158Z,20.43
2018-02-09T01:07:09.741Z,19.83
2018-02-09T01:09:37.310Z,19.10
2018-02-09T01:12:04.926Z,20.23
2018-02-09T01:14:32.562Z,18.60
2018-02-09T01:17:00.130Z,18.73
2018-02-09T01:19:27.707Z,19.67
2018-02-09T01:21:55.331Z,18.43
2018-02-09T01:24:22.945Z,19.30
2018-02-09T01:26:50.506Z,22.13
2018-02-09T01:29:18.066Z,21.20
2018-02-09T01:31:45.646Z,24.43
2018-02-09T01:34:13.222Z,22.73
2018-02-09T01:36:40.856Z,24.50
2018-02-09T01:39:08.494Z,24.50
2018-02-09T01:41:36.123Z,24.43
2018-02-09T01:44:03.703Z,23.47
2018-02-09T01:46:31.271Z,23.63
2018-02-09T01:48:58.895Z,25.13
2018-02-09T01:51:26.477Z,21.87
2018-02-09T01:53:54.045Z,22.03
2018-02-09T01:56:21.686Z,23.10
2018-02-09T01:58:49.321Z,19.87
2018-02-09T02:01:16.947Z,18.67
2018-02-09T02:03:44.515Z,18.53
2018-02-09T02:06:12.166Z,17.80
2018-02-09T02:08:39.736Z,19.03
2018-02-09T02:11:07.372Z,17.70
2018-02-09T02:13:35.007Z,18.20
2018-02-09T02:16:02.566Z,19.90
2018-02-09T02:18:30.144Z,18.40
2018-02-09T02:20:57.739Z,18.60
2018-02-09T02:23:25.310Z,18.90
2018-02-09T02:25:53.078Z,19.30
2018-02-09T02:28:20.646Z,18.27
2018-02-09T02:30:48.219Z,19.37
2018-02-09T02:33:15.868Z,18.70
2018-02-09T02:35:43.495Z,18.80
2018-02-09T02:38:11.131Z,18.63
2018-02-09T02:40:38.712Z,18.87
2018-02-09T02:43:06.285Z,19.10
2018-02-09T02:45:33.888Z,23.60
2018-02-09T02:48:01.470Z,24.30
2018-02-09T02:50:29.093Z,25.03
2018-02-09T02:52:56.658Z,22.30
2018-02-09T02:55:24.286Z,18.67
2018-02-09T02:57:51.920Z,18.17
2018-02-09T03:00:19.840Z,19.37
2018-02-09T03:02:47.471Z,23.13
2018-02-09T03:05:15.094Z,19.70
2018-02-09T03:07:42.654Z,15.27
2018-02-09T03:10:10.291Z,21.90
2018-02-09T03:12:37.849Z,19.87
2018-02-09T03:15:05.468Z,23.47
2018-02-09T03:17:33.015Z,27.00
2018-02-09T03:20:00.582Z,21.50
2018-02-09T03:22:28.161Z,22.33
2018-02-09T03:24:55.718Z,31.20
2018-02-09T03:27:23.394Z,21.27
2018-02-09T03:29:50.951Z,22.80
2018-02-09T03:32:18.525Z,19.73
2018-02-09T03:34:46.099Z,15.33
2018-02-09T03:37:13.674Z,16.20
2018-02-09T03:39:41.367Z,17.90
2018-02-09T03:42:08.935Z,17.47
2018-02-09T03:44:36.511Z,16.20
2018-02-09T03:47:04.086Z,17.83
2018-02-09T03:49:31.668Z,17.90
2018-02-09T03:51:59.355Z,15.90
2018-02-09T03:54:26.970Z,17.10
2018-02-09T03:56:54.544Z,17.73
2018-02-09T03:59:22.182Z,17.87
2018-02-09T04:01:49.745Z,18.90
2018-02-09T04:04:17.430Z,16.40
2018-02-09T04:06:45.058Z,18.77
2018-02-09T04:09:12.692Z,16.67
2018-02-09T04:11:40.308Z,17.00
2018-02-09T04:14:07.881Z,17.17
2018-02-09T04:16:35.505Z,18.73
2018-02-09T04:19:03.099Z,19.17
2018-02-09T04:21:30.752Z,18.77
2018-02-09T04:23:58.410Z,16.63
2018-02-09T04:26:25.973Z,16.73
2018-02-09T04:28:53.646Z,15.73
2018-02-09T04:31:21.234Z,15.07
2018-02-09T04:33:48.803Z,15.17
2018-02-09T04:36:16.431Z,16.50
2018-02-09T04:38:44.005Z,16.77
2018-02-09T04:41:11.654Z,14.40
2018-02-09T04:43:39.308Z,14.20
2018-02-09T04:46:06.877Z,16.60
2018-02-09T04:48:34.505Z,18.60
2018-02-09T04:51:02.933Z,17.77
2018-02-09T04:53:30.661Z,17.20
2018-02-09T04:55:58.230Z,18.83
2018-02-09T04:58:25.790Z,22.40
2018-02-09T05:00:53.371Z,20.53
2018-02-09T05:03:21.026Z,18.00
2018-02-09T05:05:48.746Z,16.30
2018-02-09T05:08:16.367Z,13.23
2018-02-09T05:10:43.934Z,12.40
2018-02-09T05:13:11.570Z,14.00
2018-02-09T05:15:39.194Z,12.00
2018-02-09T05:18:06.826Z,14.53
2018-02-09T05:20:34.385Z,24.60
2018-02-09T05:23:01.968Z,21.43
2018-02-09T05:25:29.543Z,14.47
2018-02-09T05:27:57.168Z,15.47
2018-02-09T05:30:24.777Z,13.27
2018-02-09T05:32:52.407Z,15.40
2018-02-09T05:35:19.979Z,12.17
2018-02-09T05:37:47.615Z,11.60
2018-02-09T05:40:15.200Z,10.60
2018-02-09T05:42:42.839Z,11.80
2018-02-09T05:45:10.410Z,10.90
2018-02-09T05:47:37.971Z,13.10
2018-02-09T05:50:05.580Z,14.80
2018-02-09T05:52:33.149Z,13.30
2018-02-09T05:55:00.769Z,17.97
2018-02-09T05:57:28.390Z,12.90
2018-02-09T05:59:55.950Z,17.10
2018-02-09T06:02:23.521Z,13.00
2018-02-09T06:04:51.142Z,13.70
2018-02-09T06:07:18.781Z,11.67
2018-02-09T06:09:46.349Z,10.27
2018-02-09T06:12:14.026Z,11.60
2018-02-09T06:14:41.596Z,10.60
2018-02-09T06:17:09.138Z,14.80
2018-02-09T06:19:36.715Z,14.63
2018-02-09T06:22:04.295Z,12.00
2018-02-09T06:24:31.928Z,9.30
2018-02-09T06:26:59.502Z,9.20
2018-02-09T06:29:27.122Z,10.50
2018-02-09T06:31:54.678Z,10.37
2018-02-09T06:34:22.239Z,8.30
2018-02-09T06:36:49.805Z,9.30
2018-02-09T06:39:17.361Z,14.20
2018-02-09T06:41:44.947Z,14.10
2018-02-09T06:44:12.550Z,12.03
2018-02-09T06:46:40.351Z,14.63
2018-02-09T06:49:07.921Z,12.60
2018-02-09T06:51:35.551Z,13.37
2018-02-09T06:54:03.140Z,11.67
2018-02-09T06:56:30.772Z,10.10
2018-02-09T06:58:58.347Z,9.30
2018-02-09T07:01:25.966Z,12.30
2018-02-09T07:03:53.577Z,6.53
2018-02-09T07:06:21.139Z,10.70
2018-02-09T07:08:48.703Z,9.10
2018-02-09T07:11:16.265Z,8.80
2018-02-09T07:13:43.893Z,9.40
2018-02-09T07:16:11.527Z,20.77
2018-02-09T07:18:39.084Z,7.50
2018-02-09T07:21:06.758Z,9.10
2018-02-09T07:23:34.323Z,82.93
2018-02-09T07:26:01.888Z,18.83
2018-02-09T07:28:29.460Z,9.60
2018-02-09T07:30:57.029Z,10.90
2018-02-09T07:33:24.654Z,14.50
2018-02-09T07:35:52.228Z,11.27
2018-02-09T07:38:19.828Z,14.17
2018-02-09T07:40:47.392Z,12.50
2018-02-09T07:43:15.073Z,10.80
2018-02-09T07:45:42.650Z,12.13
2018-02-09T07:48:10.218Z,8.53
2018-02-09T07:50:37.820Z,10.10
2018-02-09T07:53:05.363Z,16.30
2018-02-09T07:55:32.996Z,10.70
2018-02-09T07:58:00.646Z,13.40
2018-02-09T08:00:28.206Z,15.33
2018-02-09T08:02:55.788Z,10.93
2018-02-09T08:05:23.367Z,15.07
2018-02-09T08:07:51.008Z,16.30
2018-02-09T08:10:18.630Z,12.27
2018-02-09T08:12:46.258Z,13.40
2018-02-09T08:15:13.886Z,13.47
2018-02-09T08:17:41.460Z,12.80
2018-02-09T08:20:09.049Z,12.30
2018-02-09T08:22:36.679Z,12.23
2018-02-09T08:25:04.298Z,9.20
2018-02-09T08:27:31.936Z,12.27
2018-02-09T08:29:59.558Z,8.33
2018-02-09T08:32:27.183Z,37.13
2018-02-09T08:34:54.784Z,11.90
2018-02-09T08:37:22.370Z,13.23
2018-02-09T08:39:49.954Z,12.20
2018-02-09T08:42:17.541Z,9.63
2018-02-09T08:44:45.094Z,10.07
2018-02-09T08:47:12.770Z,10.93
2018-02-09T08:49:40.387Z,8.90
2018-02-09T08:52:07.954Z,33.50
2018-02-09T08:54:35.530Z,10.60
2018-02-09T08:57:03.155Z,8.70
2018-02-09T08:59:30.721Z,9.90
2018-02-09T09:01:58.286Z,10.90
2018-02-09T09:04:25.932Z,11.40
2018-02-09T09:06:53.558Z,9.37
2018-02-09T09:09:21.121Z,12.03
2018-02-09T09:11:48.704Z,10.37
2018-02-09T09:14:16.272Z,8.20
2018-02-09T09:16:43.894Z,9.00
2018-02-09T09:19:11.461Z,6.73
2018-02-09T09:21:39.152Z,10.80
2018-02-09T09:24:06.774Z,33.90
2018-02-09T09:26:34.404Z,8.37
2018-02-09T09:29:01.990Z,6.03
2018-02-09T09:31:29.561Z,7.37
2018-02-09T09:33:57.156Z,5.50
2018-02-09T09:36:24.736Z,6.40
2018-02-09T09:38:52.431Z,8.13
2018-02-09T09:41:20.003Z,6.97
2018-02-09T09:43:47.574Z,7.30
2018-02-09T09:46:15.202Z,8.07
2018-02-09T09:48:42.830Z,7.30
2018-02-09T09:51:10.404Z,7.50
2018-02-09T09:53:37.945Z,7.13
2018-02-09T09:56:05.558Z,6.07
2018-02-09T09:58:33.122Z,6.33
2018-02-09T10:01:00.726Z,6.53
2018-02-09T10:03:28.294Z,5.83
2018-02-09T10:05:55.915Z,7.47
2018-02-09T10:08:23.509Z,6.40
2018-02-09T10:10:51.126Z,8.33
2018-02-09T10:13:18.751Z,8.70
2018-02-09T10:15:46.326Z,8.47
2018-02-09T10:18:13.903Z,5.93
2018-02-09T10:20:41.483Z,6.60
2018-02-09T10:23:09.115Z,4.60
2018-02-09T10:25:36.691Z,7.00
2018-02-09T10:28:04.320Z,8.73
2018-02-09T10:30:31.990Z,10.00
2018-02-09T10:32:59.555Z,5.27
2018-02-09T10:35:27.130Z,5.43
2018-02-09T10:37:54.764Z,6.60
2018-02-09T10:40:22.330Z,5.00
2018-02-09T10:42:49.884Z,5.80
2018-02-09T10:45:17.448Z,7.07
2018-02-09T10:47:45.087Z,5.73
2018-02-09T10:50:12.655Z,7.43
2018-02-09T10:52:40.274Z,6.80
2018-02-09T10:55:07.911Z,6.37
2018-02-09T10:57:35.475Z,8.00
2018-02-09T11:00:03.108Z,8.27
2018-02-09T11:02:30.673Z,7.77
2018-02-09T11:04:58.253Z,8.20
2018-02-09T11:07:25.818Z,7.80
2018-02-09T11:09:53.477Z,7.10
2018-02-09T11:12:21.928Z,8.40
2018-02-09T11:14:49.487Z,6.33
2018-02-09T11:17:17.155Z,6.40
2018-02-09T11:19:44.738Z,7.53
2018-02-09T11:22:12.323Z,6.13
2018-02-09T11:24:39.991Z,5.57
2018-02-09T11:27:07.613Z,6.03
2018-02-09T11:29:35.238Z,4.83
2018-02-09T11:32:02.876Z,7.10
2018-02-09T11:34:30.457Z,11.13
2018-02-09T11:36:58.030Z,8.47
2018-02-09T11:39:25.617Z,6.97
2018-02-09T11:41:53.208Z,6.17
2018-02-09T11:44:20.983Z,5.60
2018-02-09T11:46:48.563Z,5.97
2018-02-09T11:49:16.186Z,6.73
2018-02-09T11:51:43.768Z,7.33
2018-02-09T11:54:11.338Z,6.30
2018-02-09T11:56:39.000Z,5.30
2018-02-09T11:59:06.623Z,4.57
2018-02-09T12:01:34.298Z,6.13
2018-02-09T12:04:01.907Z,5.83
2018-02-09T12:06:29.471Z,6.97
2018-02-09T12:08:57.124Z,6.43
2018-02-09T12:11:24.686Z,6.60
2018-02-09T12:13:52.406Z,6.87
2018-02-09T12:16:20.038Z,6.53
2018-02-09T12:18:47.721Z,6.30
2018-02-09T12:21:15.297Z,6.27
2018-02-09T12:23:42.875Z,8.87
2018-02-09T12:26:10.429Z,7.10
2018-02-09T12:28:38.047Z,7.40
2018-02-09T12:31:05.614Z,9.10
2018-02-09T12:33:33.182Z,5.83
2018-02-09T12:36:00.873Z,15.33
2018-02-09T12:38:28.443Z,7.57
2018-02-09T12:40:56.090Z,7.20
2018-02-09T12:43:23.709Z,7.10
2018-02-09T12:45:51.282Z,4.20
2018-02-09T12:48:18.939Z,5.60
2018-02-09T12:50:46.531Z,8.93
2018-02-09T12:53:14.164Z,6.57
2018-02-09T12:55:41.730Z,7.20
2018-02-09T12:58:09.351Z,5.73
2018-02-09T13:00:36.991Z,7.43
2018-02-09T13:03:04.570Z,5.20
2018-02-09T13:05:32.272Z,4.77
2018-02-09T13:07:59.844Z,5.77
2018-02-09T13:10:27.417Z,6.43
2018-02-09T13:13:08.914Z,5.00
2018-02-09T13:15:36.554Z,6.03
2018-02-09T13:18:04.223Z,6.33
2018-02-09T13:20:31.796Z,7.53
2018-02-09T13:23:11.404Z,7.77
2018-02-09T13:25:38.973Z,5.80
2018-02-09T13:28:06.541Z,7.27
2018-02-09T13:30:34.125Z,5.67
2018-02-09T13:33:13.582Z,8.67
2018-02-09T13:35:41.255Z,7.90
2018-02-09T13:38:08.878Z,6.00
2018-02-09T13:40:36.502Z,6.57
2018-02-09T13:43:04.091Z,8.87
2018-02-09T13:45:31.695Z,9.03
2018-02-09T13:47:59.299Z,13.23
2018-02-09T13:50:26.866Z,13.23
2018-02-09T13:52:54.427Z,12.70
2018-02-09T13:55:22.012Z,10.33
2018-02-09T13:57:49.577Z,7.83
2018-02-09T14:00:17.299Z,6.50
2018-02-09T14:02:44.943Z,8.83
2018-02-09T14:05:12.503Z,7.57
2018-02-09T14:07:40.074Z,7.33
2018-02-09T14:10:07.702Z,8.40
2018-02-09T14:12:35.326Z,8.97
2018-02-09T14:15:02.898Z,8.90
2018-02-09T14:17:30.503Z,8.73
2018-02-09T14:19:58.080Z,8.20
2018-02-09T14:22:25.646Z,7.93
2018-02-09T14:24:53.316Z,8.17
2018-02-09T14:27:20.890Z,9.90
2018-02-09T14:29:48.455Z,7.87
2018-02-09T14:32:16.030Z,10.10
2018-02-09T14:34:43.655Z,10.00
2018-02-09T14:37:11.221Z,11.73
2018-02-09T14:39:38.850Z,14.33
2018-02-09T14:42:06.473Z,14.70
2018-02-09T14:44:34.038Z,12.40
2018-02-09T14:47:01.613Z,11.60
2018-02-09T14:49:29.256Z,11.70
2018-02-09T14:51:56.864Z,7.90
2018-02-09T14:54:24.508Z,11.93
2018-02-09T14:56:52.086Z,10.87
2018-02-09T14:59:19.780Z,12.27
2018-02-09T15:01:47.347Z,13.13
2018-02-09T15:04:14.975Z,13.73
2018-02-09T15:06:43.774Z,13.30
2018-02-09T15:09:11.336Z,14.40
2018-02-09T15:11:38.898Z,21.40
2018-02-09T15:14:06.463Z,20.90
2018-02-09T15:16:34.245Z,19.67
2018-02-09T15:19:01.851Z,20.47
2018-02-09T15:21:29.436Z,20.20
2018-02-09T15:23:57.082Z,20.83
2018-02-09T15:26:25.509Z,21.70
2018-02-09T15:28:53.085Z,20.00
2018-02-09T15:31:20.716Z,25.33
2018-02-09T15:33:48.386Z,27.80
2018-02-09T15:36:16.031Z,23.53
2018-02-09T15:38:43.609Z,24.40
2018-02-09T15:41:11.201Z,23.00
2018-02-09T15:43:38.846Z,22.10
2018-02-09T15:46:06.484Z,19.90
2018-02-09T15:48:34.985Z,18.47
2018-02-09T15:51:02.610Z,27.10
2018-02-09T15:53:30.292Z,22.47
2018-02-09T15:55:57.858Z,22.23
2018-02-09T15:58:25.422Z,23.60
2018-02-09T16:00:53.574Z,24.27
2018-02-09T16:03:21.203Z,27.60
2018-02-09T16:05:48.806Z,31.57
2018-02-09T16:08:16.422Z,34.37
2018-02-09T16:10:43.990Z,27.90
2018-02-09T16:13:11.530Z,33.33
2018-02-09T16:15:39.097Z,27.40
2018-02-09T16:18:06.655Z,28.30
2018-02-09T16:20:34.230Z,33.73
2018-02-09T16:23:01.796Z,32.50
2018-02-09T16:25:29.451Z,36.07
2018-02-09T16:27:57.125Z,31.17
2018-02-09T16:30:24.748Z,32.83
2018-02-09T16:32:52.325Z,31.97
2018-02-09T16:35:19.955Z,29.40
2018-02-09T16:37:47.592Z,26.43
2018-02-09T16:40:15.157Z,30.80
2018-02-09T16:42:43.662Z,31.37
2018-02-09T16:45:11.236Z,30.40
2018-02-09T16:47:38.824Z,33.53
2018-02-09T16:50:06.433Z,24.20
2018-02-09T16:52:33.994Z,25.43
2018-02-09T16:55:01.632Z,30.47
2018-02-09T16:57:30.014Z,24.10
2018-02-09T16:59:57.706Z,25.57
2018-02-09T17:02:25.273Z,27.57
2018-02-09T17:04:52.904Z,23.87
2018-02-09T17:07:20.535Z,22.70
2018-02-09T17:09:48.116Z,21.63
2018-02-09T17:12:15.787Z,23.10
2018-02-09T17:14:43.349Z,25.93
2018-02-09T17:17:10.905Z,21.57
2018-02-09T17:19:38.478Z,25.40
2018-02-09T17:22:06.360Z,23.30
2018-02-09T17:24:33.979Z,25.47
2018-02-09T17:27:01.554Z,24.87
2018-02-09T17:29:29.184Z,26.13
2018-02-09T17:31:56.777Z,29.83
2018-02-09T17:34:24.353Z,25.93
2018-02-09T17:36:52.007Z,25.77
2018-02-09T17:39:19.625Z,24.97
2018-02-09T17:41:47.203Z,24.70
2018-02-09T17:44:14.779Z,24.43
2018-02-09T17:46:42.360Z,23.23
2018-02-09T17:49:09.998Z,23.30
2018-02-09T17:51:37.623Z,26.17
2018-02-09T17:54:05.307Z,25.20
2018-02-09T17:56:32.934Z,28.63
2018-02-09T17:59:00.509Z,26.40
2018-02-09T18:01:28.083Z,28.03
2018-02-09T18:03:55.711Z,33.07
2018-02-09T18:06:23.278Z,33.30
2018-02-09T18:08:50.844Z,43.07
2018-02-09T18:11:18.514Z,39.03
2018-02-09T18:13:46.098Z,32.30
2018-02-09T18:16:13.747Z,36.93
2018-02-09T18:18:41.322Z,35.10
2018-02-09T18:21:08.889Z,35.33
2018-02-09T18:23:36.803Z,28.60
2018-02-09T18:26:04.498Z,29.53
2018-02-09T18:28:32.178Z,30.10
2018-02-09T18:30:59.789Z,32.00
2018-02-09T18:33:27.693Z,41.20
2018-02-09T18:35:55.341Z,41.60
2018-02-09T18:38:22.901Z,60.23
2018-02-09T18:40:50.534Z,54.90
2018-02-09T18:43:18.241Z,53.13
2018-02-09T18:45:45.869Z,55.77
2018-02-09T18:48:13.470Z,50.20
2018-02-09T18:50:41.033Z,52.97
2018-02-09T18:53:08.618Z,48.27
2018-02-09T18:55:36.241Z,49.40
2018-02-09T18:58:03.822Z,60.20
2018-02-09T19:00:31.454Z,68.53
2018-02-09T19:02:59.149Z,55.30
2018-02-09T19:05:26.753Z,60.20
2018-02-09T19:07:54.322Z,62.43
2018-02-09T19:10:21.966Z,59.37
2018-02-09T19:12:49.556Z,55.57
2018-02-09T19:15:17.144Z,57.80
2018-02-09T19:17:44.755Z,55.90
2018-02-09T19:20:12.461Z,49.73
2018-02-09T19:22:40.022Z,44.43
2018-02-09T19:25:07.645Z,37.80
2018-02-09T19:27:35.211Z,36.90
2018-02-09T19:30:02.778Z,34.93
2018-02-09T19:32:30.373Z,36.53
2018-02-09T19:34:57.995Z,35.40
2018-02-09T19:37:25.674Z,47.37
2018-02-09T19:39:53.287Z,48.00
2018-02-09T19:42:20.859Z,49.20
2018-02-09T19:44:48.459Z,50.87
2018-02-09T19:47:16.030Z,53.63
2018-02-09T19:49:43.618Z,62.60
2018-02-09T19:52:11.254Z,50.90
2018-02-09T19:54:38.946Z,43.50
2018-02-09T19:57:06.526Z,34.80
2018-02-09T19:59:34.165Z,42.77
2018-02-09T20:02:01.806Z,35.93
2018-02-09T20:04:29.423Z,35.17
2018-02-09T20:06:57.057Z,45.40
2018-02-09T20:09:24.687Z,40.40
2018-02-09T20:11:52.268Z,44.73
2018-02-09T20:14:19.854Z,45.93
2018-02-09T20:16:47.432Z,43.97
2018-02-09T20:19:15.358Z,47.40
2018-02-09T20:21:42.931Z,37.67
2018-02-09T20:24:10.552Z,39.93
2018-02-09T20:26:38.125Z,37.70
2018-02-09T20:29:05.767Z,40.97
2018-02-09T20:31:33.342Z,40.97
2018-02-09T20:34:00.926Z,41.30
2018-02-09T20:36:28.569Z,44.00
2018-02-09T20:38:56.316Z,40.73
2018-02-09T20:41:23.991Z,42.90
2018-02-09T20:43:51.563Z,42.17
2018-02-09T20:46:19.119Z,47.37
2018-02-09T20:48:46.758Z,48.30
2018-02-09T20:51:14.391Z,46.47
2018-02-09T20:53:42.026Z,49.57
2018-02-09T20:56:09.657Z,48.13
2018-02-09T20:58:37.363Z,42.67
2018-02-09T21:01:05.135Z,39.07
2018-02-09T21:03:32.729Z,33.27
2018-02-09T21:06:00.298Z,26.97
2018-02-09T21:08:27.867Z,27.57
2018-02-09T21:10:55.451Z,26.47
2018-02-09T21:13:23.077Z,25.73
2018-02-09T21:15:50.710Z,24.70
2018-02-09T21:18:18.287Z,23.67
2018-02-09T21:20:45.831Z,24.70
2018-02-09T21:23:13.401Z,25.77
2018-02-09T21:25:40.966Z,23.27
2018-02-09T21:30:42.453Z,28.43
2018-02-09T21:33:10.166Z,26.70
2018-02-09T21:35:37.793Z,24.23
2018-02-09T21:38:05.427Z,23.50
2018-02-09T21:40:33.001Z,22.93
2018-02-09T21:43:00.621Z,20.90
2018-02-09T21:45:28.331Z,20.53
2018-02-09T21:47:55.898Z,22.67
2018-02-09T21:50:23.454Z,21.83
2018-02-09T21:52:51.026Z,25.57
2018-02-09T21:55:18.598Z,26.53
2018-02-09T21:57:46.217Z,26.33
2018-02-09T22:00:13.837Z,22.90
2018-02-09T22:02:41.469Z,27.53
2018-02-09T22:05:09.044Z,32.00
2018-02-09T22:07:36.600Z,31.73
2018-02-09T22:10:04.166Z,34.60
2018-02-09T22:12:31.725Z,32.30
2018-02-09T22:14:59.286Z,27.90
2018-02-09T22:17:26.880Z,24.53
2018-02-09T22:19:54.503Z,28.20
2018-02-09T22:22:22.070Z,29.90
2018-02-09T22:24:49.633Z,27.70
2018-02-09T22:27:17.235Z,24.90
2018-02-09T22:29:44.806Z,25.30
2018-02-09T22:32:12.426Z,27.00
2018-02-09T22:34:40.073Z,27.37
2018-02-09T22:37:07.651Z,29.73
2018-02-09T22:39:35.298Z,31.03
2018-02-09T22:42:02.881Z,27.10
2018-02-09T22:44:30.439Z,31.27
2018-02-09T22:46:58.066Z,30.30
2018-02-09T22:49:25.694Z,30.50
2018-02-09T22:51:53.310Z,25.73
2018-02-09T22:54:20.865Z,24.40
2018-02-09T22:56:48.475Z,19.90
2018-02-09T22:59:16.063Z,20.93
2018-02-09T23:01:43.682Z,18.07
2018-02-09T23:04:11.310Z,18.63
2018-02-09T23:06:38.940Z,17.33
2018-02-09T23:09:06.614Z,16.03
2018-02-09T23:11:34.234Z,16.70
2018-02-09T23:14:01.854Z,16.63
2018-02-09T23:16:29.431Z,15.77
2018-02-09T23:18:56.992Z,17.10
2018-02-09T23:21:24.622Z,16.20
2018-02-09T23:23:52.183Z,16.23
2018-02-09T23:26:19.820Z,17.40
2018-02-09T23:28:47.402Z,20.90
2018-02-09T23:31:15.023Z,18.10
2018-02-09T23:33:42.594Z,16.30
2018-02-09T23:36:10.154Z,15.90
2018-02-09T23:38:37.822Z,16.83
2018-02-09T23:41:05.385Z,19.17
2018-02-09T23:43:32.950Z,18.20
2018-02-09T23:46:00.525Z,16.27
2018-02-09T23:48:28.150Z,16.90
2018-02-09T23:50:55.722Z,17.07
2018-02-09T23:53:23.290Z,19.47
2018-02-09T23:55:51.007Z,17.60
2018-02-09T23:58:18.611Z,18.37
